sensor_id;sensor_type;location;lat;lon;timestamp;P1;durP1;ratioP1;P2;durP2;ratioP2
71771;SDS011;59606;52.138;5.424;2023-06-22T00:02:26;18.60;;;6.87;;
71771;SDS011;59606;52.138;5.424;2023-06-22T00:04:52;14.35;;;6.10;;
71771;SDS011;59606;52.138;5.424;2023-06-22T00:07:19;10.52;;;5.82;;
71771;SDS011;59606;52.138;5.424;2023-06-22T00:09:45;11.65;;;5.65;;
71771;SDS011;59606;52.138;5.424;2023-06-22T00:12:12;10.85;;;5.47;;
71771;SDS011;59606;52.138;5.424;2023-06-22T00:14:39;10.67;;;5.53;;
71771;SDS011;59606;52.138;5.424;2023-06-22T00:17:05;11.23;;;6.47;;
71771;SDS011;59606;52.138;5.424;2023-06-22T00:19:31;12.05;;;6.03;;
71771;SDS011;59606;52.138;5.424;2023-06-22T00:22:01;9.38;;;5.63;;
71771;SDS011;59606;52.138;5.424;2023-06-22T00:24:29;10.27;;;6.15;;
71771;SDS011;59606;52.138;5.424;2023-06-22T00:26:56;10.63;;;5.93;;
71771;SDS011;59606;52.138;5.424;2023-06-22T00:29:23;10.55;;;6.15;;
71771;SDS011;59606;52.138;5.424;2023-06-22T00:31:51;11.80;;;6.57;;
71771;SDS011;59606;52.138;5.424;2023-06-22T00:34:17;11.05;;;6.57;;
71771;SDS011;59606;52.138;5.424;2023-06-22T00:36:44;12.25;;;6.18;;
71771;SDS011;59606;52.138;5.424;2023-06-22T00:39:10;9.30;;;5.73;;
71771;SDS011;59606;52.138;5.424;2023-06-22T00:41:38;10.38;;;5.45;;
71771;SDS011;59606;52.138;5.424;2023-06-22T00:44:04;11.27;;;6.03;;
71771;SDS011;59606;52.138;5.424;2023-06-22T00:46:33;9.93;;;6.63;;
71771;SDS011;59606;52.138;5.424;2023-06-22T00:48:59;11.40;;;6.57;;
71771;SDS011;59606;52.138;5.424;2023-06-22T00:51:26;10.73;;;6.30;;
71771;SDS011;59606;52.138;5.424;2023-06-22T00:53:53;11.88;;;6.18;;
71771;SDS011;59606;52.138;5.424;2023-06-22T00:56:20;9.30;;;5.88;;
71771;SDS011;59606;52.138;5.424;2023-06-22T00:58:50;9.77;;;5.55;;
71771;SDS011;59606;52.138;5.424;2023-06-22T01:01:19;12.55;;;6.20;;
71771;SDS011;59606;52.138;5.424;2023-06-22T01:03:49;10.53;;;5.83;;
71771;SDS011;59606;52.138;5.424;2023-06-22T01:06:19;10.20;;;6.40;;
71771;SDS011;59606;52.138;5.424;2023-06-22T01:08:57;10.68;;;6.35;;
71771;SDS011;59606;52.138;5.424;2023-06-22T01:11:34;13.05;;;6.38;;
71771;SDS011;59606;52.138;5.424;2023-06-22T01:14:12;9.95;;;5.80;;
71771;SDS011;59606;52.138;5.424;2023-06-22T01:16:45;12.00;;;6.10;;
71771;SDS011;59606;52.138;5.424;2023-06-22T01:22:03;10.82;;;5.85;;
71771;SDS011;59606;52.138;5.424;2023-06-22T01:30:46;9.60;;;5.37;;
71771;SDS011;59606;52.138;5.424;2023-06-22T01:33:15;9.98;;;5.45;;
71771;SDS011;59606;52.138;5.424;2023-06-22T01:35:42;10.35;;;5.75;;
71771;SDS011;59606;52.138;5.424;2023-06-22T01:38:10;11.70;;;6.28;;
71771;SDS011;59606;52.138;5.424;2023-06-22T01:40:37;9.25;;;5.78;;
71771;SDS011;59606;52.138;5.424;2023-06-22T01:43:04;9.80;;;5.57;;
71771;SDS011;59606;52.138;5.424;2023-06-22T01:45:31;10.82;;;6.38;;
71771;SDS011;59606;52.138;5.424;2023-06-22T01:47:58;9.73;;;5.95;;
71771;SDS011;59606;52.138;5.424;2023-06-22T01:50:25;11.30;;;5.95;;
71771;SDS011;59606;52.138;5.424;2023-06-22T01:52:53;9.10;;;5.88;;
71771;SDS011;59606;52.138;5.424;2023-06-22T01:55:19;11.07;;;6.10;;
71771;SDS011;59606;52.138;5.424;2023-06-22T01:57:46;9.48;;;5.20;;
71771;SDS011;59606;52.138;5.424;2023-06-22T02:00:14;12.63;;;6.40;;
71771;SDS011;59606;52.138;5.424;2023-06-22T02:02:52;9.93;;;5.78;;
71771;SDS011;59606;52.138;5.424;2023-06-22T02:05:26;13.40;;;6.07;;
71771;SDS011;59606;52.138;5.424;2023-06-22T02:10:29;10.35;;;6.00;;
71771;SDS011;59606;52.138;5.424;2023-06-22T02:12:57;12.80;;;6.93;;
71771;SDS011;59606;52.138;5.424;2023-06-22T02:15:25;10.80;;;6.60;;
71771;SDS011;59606;52.138;5.424;2023-06-22T02:17:52;9.95;;;6.18;;
71771;SDS011;59606;52.138;5.424;2023-06-22T02:20:19;10.17;;;6.03;;
71771;SDS011;59606;52.138;5.424;2023-06-22T02:22:46;10.27;;;6.32;;
71771;SDS011;59606;52.138;5.424;2023-06-22T02:25:12;12.43;;;6.57;;
71771;SDS011;59606;52.138;5.424;2023-06-22T02:27:39;10.95;;;6.13;;
71771;SDS011;59606;52.138;5.424;2023-06-22T02:30:07;10.52;;;5.97;;
71771;SDS011;59606;52.138;5.424;2023-06-22T02:32:35;10.73;;;6.50;;
71771;SDS011;59606;52.138;5.424;2023-06-22T02:35:02;11.13;;;5.88;;
71771;SDS011;59606;52.138;5.424;2023-06-22T02:37:32;10.70;;;6.07;;
71771;SDS011;59606;52.138;5.424;2023-06-22T02:39:59;12.98;;;6.22;;
71771;SDS011;59606;52.138;5.424;2023-06-22T02:42:25;13.05;;;6.25;;
71771;SDS011;59606;52.138;5.424;2023-06-22T02:44:52;12.20;;;6.70;;
71771;SDS011;59606;52.138;5.424;2023-06-22T02:47:18;13.18;;;7.63;;
71771;SDS011;59606;52.138;5.424;2023-06-22T02:49:45;12.18;;;6.88;;
71771;SDS011;59606;52.138;5.424;2023-06-22T02:52:12;14.68;;;7.10;;
71771;SDS011;59606;52.138;5.424;2023-06-22T02:54:39;13.88;;;6.45;;
71771;SDS011;59606;52.138;5.424;2023-06-22T02:57:05;15.30;;;6.93;;
71771;SDS011;59606;52.138;5.424;2023-06-22T02:59:32;11.10;;;6.28;;
71771;SDS011;59606;52.138;5.424;2023-06-22T03:01:59;12.15;;;6.88;;
71771;SDS011;59606;52.138;5.424;2023-06-22T03:04:27;10.98;;;6.38;;
71771;SDS011;59606;52.138;5.424;2023-06-22T03:06:53;11.57;;;6.63;;
71771;SDS011;59606;52.138;5.424;2023-06-22T03:09:20;10.57;;;6.97;;
71771;SDS011;59606;52.138;5.424;2023-06-22T03:11:46;10.68;;;6.68;;
71771;SDS011;59606;52.138;5.424;2023-06-22T03:14:13;13.30;;;7.43;;
71771;SDS011;59606;52.138;5.424;2023-06-22T03:16:39;11.57;;;7.03;;
71771;SDS011;59606;52.138;5.424;2023-06-22T03:19:07;11.38;;;7.20;;
71771;SDS011;59606;52.138;5.424;2023-06-22T03:21:33;13.10;;;6.80;;
71771;SDS011;59606;52.138;5.424;2023-06-22T03:24:00;13.10;;;7.10;;
71771;SDS011;59606;52.138;5.424;2023-06-22T03:26:26;13.25;;;7.22;;
71771;SDS011;59606;52.138;5.424;2023-06-22T03:28:53;14.23;;;8.18;;
71771;SDS011;59606;52.138;5.424;2023-06-22T03:31:20;13.98;;;7.18;;
71771;SDS011;59606;52.138;5.424;2023-06-22T03:33:48;15.60;;;8.00;;
71771;SDS011;59606;52.138;5.424;2023-06-22T03:36:16;14.45;;;7.60;;
71771;SDS011;59606;52.138;5.424;2023-06-22T03:38:47;14.05;;;7.47;;
71771;SDS011;59606;52.138;5.424;2023-06-22T03:41:14;13.15;;;7.43;;
71771;SDS011;59606;52.138;5.424;2023-06-22T03:43:41;11.13;;;7.28;;
71771;SDS011;59606;52.138;5.424;2023-06-22T03:46:07;15.83;;;7.63;;
71771;SDS011;59606;52.138;5.424;2023-06-22T03:48:34;17.38;;;7.50;;
71771;SDS011;59606;52.138;5.424;2023-06-22T03:51:01;17.42;;;7.60;;
71771;SDS011;59606;52.138;5.424;2023-06-22T03:53:29;14.00;;;8.15;;
71771;SDS011;59606;52.138;5.424;2023-06-22T03:55:56;14.02;;;8.45;;
71771;SDS011;59606;52.138;5.424;2023-06-22T03:58:22;12.03;;;6.87;;
71771;SDS011;59606;52.138;5.424;2023-06-22T04:00:50;14.95;;;7.68;;
71771;SDS011;59606;52.138;5.424;2023-06-22T04:03:18;13.32;;;7.45;;
71771;SDS011;59606;52.138;5.424;2023-06-22T04:05:46;13.07;;;7.70;;
71771;SDS011;59606;52.138;5.424;2023-06-22T04:08:13;14.48;;;8.52;;
71771;SDS011;59606;52.138;5.424;2023-06-22T04:10:40;12.93;;;7.90;;
71771;SDS011;59606;52.138;5.424;2023-06-22T04:13:07;16.15;;;8.90;;
71771;SDS011;59606;52.138;5.424;2023-06-22T04:15:33;13.98;;;7.97;;
71771;SDS011;59606;52.138;5.424;2023-06-22T04:18:00;14.40;;;8.35;;
71771;SDS011;59606;52.138;5.424;2023-06-22T04:20:27;12.40;;;8.07;;
71771;SDS011;59606;52.138;5.424;2023-06-22T04:22:55;14.53;;;8.20;;
71771;SDS011;59606;52.138;5.424;2023-06-22T04:25:22;15.88;;;8.32;;
71771;SDS011;59606;52.138;5.424;2023-06-22T04:27:49;14.40;;;8.50;;
71771;SDS011;59606;52.138;5.424;2023-06-22T04:30:16;15.35;;;8.25;;
71771;SDS011;59606;52.138;5.424;2023-06-22T04:32:43;15.60;;;8.52;;
71771;SDS011;59606;52.138;5.424;2023-06-22T04:35:10;17.07;;;8.83;;
71771;SDS011;59606;52.138;5.424;2023-06-22T04:37:37;16.70;;;8.98;;
71771;SDS011;59606;52.138;5.424;2023-06-22T04:40:05;15.13;;;9.00;;
71771;SDS011;59606;52.138;5.424;2023-06-22T04:42:33;18.45;;;9.10;;
71771;SDS011;59606;52.138;5.424;2023-06-22T04:45:02;19.33;;;9.73;;
71771;SDS011;59606;52.138;5.424;2023-06-22T04:47:29;19.03;;;9.47;;
71771;SDS011;59606;52.138;5.424;2023-06-22T04:49:56;20.45;;;10.60;;
71771;SDS011;59606;52.138;5.424;2023-06-22T04:52:22;14.88;;;9.65;;
71771;SDS011;59606;52.138;5.424;2023-06-22T04:54:50;20.85;;;10.95;;
71771;SDS011;59606;52.138;5.424;2023-06-22T04:57:23;20.50;;;11.63;;
71771;SDS011;59606;52.138;5.424;2023-06-22T04:59:58;21.30;;;10.83;;
71771;SDS011;59606;52.138;5.424;2023-06-22T05:02:40;20.88;;;11.40;;
71771;SDS011;59606;52.138;5.424;2023-06-22T05:05:07;19.20;;;12.05;;
71771;SDS011;59606;52.138;5.424;2023-06-22T05:07:35;21.52;;;11.60;;
71771;SDS011;59606;52.138;5.424;2023-06-22T05:10:02;23.65;;;12.35;;
71771;SDS011;59606;52.138;5.424;2023-06-22T05:12:30;22.13;;;12.63;;
71771;SDS011;59606;52.138;5.424;2023-06-22T05:14:56;26.10;;;11.93;;
71771;SDS011;59606;52.138;5.424;2023-06-22T05:17:24;23.25;;;13.25;;
71771;SDS011;59606;52.138;5.424;2023-06-22T05:19:51;24.15;;;13.15;;
71771;SDS011;59606;52.138;5.424;2023-06-22T05:22:18;24.25;;;13.13;;
71771;SDS011;59606;52.138;5.424;2023-06-22T05:24:45;22.97;;;13.40;;
71771;SDS011;59606;52.138;5.424;2023-06-22T05:27:12;21.95;;;13.13;;
71771;SDS011;59606;52.138;5.424;2023-06-22T05:29:39;23.42;;;13.45;;
71771;SDS011;59606;52.138;5.424;2023-06-22T05:32:06;26.40;;;14.00;;
71771;SDS011;59606;52.138;5.424;2023-06-22T05:34:33;26.20;;;14.32;;
71771;SDS011;59606;52.138;5.424;2023-06-22T05:37:00;24.70;;;14.63;;
71771;SDS011;59606;52.138;5.424;2023-06-22T05:39:26;23.77;;;14.68;;
71771;SDS011;59606;52.138;5.424;2023-06-22T05:41:53;25.73;;;15.27;;
71771;SDS011;59606;52.138;5.424;2023-06-22T05:44:20;30.70;;;16.42;;
71771;SDS011;59606;52.138;5.424;2023-06-22T05:46:46;26.95;;;16.60;;
71771;SDS011;59606;52.138;5.424;2023-06-22T05:49:14;28.90;;;16.43;;
71771;SDS011;59606;52.138;5.424;2023-06-22T05:51:42;29.95;;;15.75;;
71771;SDS011;59606;52.138;5.424;2023-06-22T05:54:09;28.45;;;16.13;;
71771;SDS011;59606;52.138;5.424;2023-06-22T05:56:36;29.80;;;16.80;;
71771;SDS011;59606;52.138;5.424;2023-06-22T05:59:03;28.95;;;18.27;;
71771;SDS011;59606;52.138;5.424;2023-06-22T06:01:30;33.27;;;17.63;;
71771;SDS011;59606;52.138;5.424;2023-06-22T06:04:02;25.92;;;17.27;;
71771;SDS011;59606;52.138;5.424;2023-06-22T06:06:34;26.88;;;17.65;;
71771;SDS011;59606;52.138;5.424;2023-06-22T06:09:05;29.30;;;17.20;;
71771;SDS011;59606;52.138;5.424;2023-06-22T06:11:33;31.52;;;20.30;;
71771;SDS011;59606;52.138;5.424;2023-06-22T06:14:00;26.47;;;16.47;;
71771;SDS011;59606;52.138;5.424;2023-06-22T06:16:26;31.67;;;18.27;;
71771;SDS011;59606;52.138;5.424;2023-06-22T06:18:53;28.85;;;16.77;;
71771;SDS011;59606;52.138;5.424;2023-06-22T06:21:22;23.73;;;15.48;;
71771;SDS011;59606;52.138;5.424;2023-06-22T06:23:48;26.65;;;15.77;;
71771;SDS011;59606;52.138;5.424;2023-06-22T06:26:15;26.73;;;16.77;;
71771;SDS011;59606;52.138;5.424;2023-06-22T06:28:43;24.45;;;16.25;;
71771;SDS011;59606;52.138;5.424;2023-06-22T06:31:10;22.48;;;15.40;;
71771;SDS011;59606;52.138;5.424;2023-06-22T06:33:38;27.23;;;17.08;;
71771;SDS011;59606;52.138;5.424;2023-06-22T06:36:05;22.55;;;16.55;;
71771;SDS011;59606;52.138;5.424;2023-06-22T06:38:31;27.47;;;16.50;;
71771;SDS011;59606;52.138;5.424;2023-06-22T06:40:58;26.83;;;15.73;;
71771;SDS011;59606;52.138;5.424;2023-06-22T06:43:25;23.83;;;15.55;;
71771;SDS011;59606;52.138;5.424;2023-06-22T06:45:51;30.33;;;16.08;;
71771;SDS011;59606;52.138;5.424;2023-06-22T06:48:18;25.40;;;16.02;;
71771;SDS011;59606;52.138;5.424;2023-06-22T06:50:44;29.60;;;16.67;;
71771;SDS011;59606;52.138;5.424;2023-06-22T06:53:11;21.80;;;14.57;;
71771;SDS011;59606;52.138;5.424;2023-06-22T06:55:38;24.77;;;15.80;;
71771;SDS011;59606;52.138;5.424;2023-06-22T06:58:04;25.77;;;16.23;;
71771;SDS011;59606;52.138;5.424;2023-06-22T07:00:33;23.25;;;13.95;;
71771;SDS011;59606;52.138;5.424;2023-06-22T07:03:02;22.03;;;14.37;;
71771;SDS011;59606;52.138;5.424;2023-06-22T07:05:28;22.73;;;15.32;;
71771;SDS011;59606;52.138;5.424;2023-06-22T07:07:55;21.77;;;14.88;;
71771;SDS011;59606;52.138;5.424;2023-06-22T07:10:22;20.77;;;13.77;;
71771;SDS011;59606;52.138;5.424;2023-06-22T07:12:48;19.42;;;12.57;;
71771;SDS011;59606;52.138;5.424;2023-06-22T07:15:15;19.97;;;13.23;;
71771;SDS011;59606;52.138;5.424;2023-06-22T07:17:41;21.02;;;13.50;;
71771;SDS011;59606;52.138;5.424;2023-06-22T07:20:08;21.83;;;12.52;;
71771;SDS011;59606;52.138;5.424;2023-06-22T07:22:39;20.85;;;12.88;;
71771;SDS011;59606;52.138;5.424;2023-06-22T07:25:07;20.67;;;12.27;;
71771;SDS011;59606;52.138;5.424;2023-06-22T07:27:44;19.43;;;12.07;;
71771;SDS011;59606;52.138;5.424;2023-06-22T07:30:32;16.33;;;11.43;;
71771;SDS011;59606;52.138;5.424;2023-06-22T07:33:00;17.55;;;11.60;;
71771;SDS011;59606;52.138;5.424;2023-06-22T07:35:32;16.55;;;10.82;;
71771;SDS011;59606;52.138;5.424;2023-06-22T07:37:59;18.05;;;11.88;;
71771;SDS011;59606;52.138;5.424;2023-06-22T07:40:31;18.43;;;11.17;;
71771;SDS011;59606;52.138;5.424;2023-06-22T07:42:58;21.55;;;12.00;;
71771;SDS011;59606;52.138;5.424;2023-06-22T07:45:24;17.45;;;11.18;;
71771;SDS011;59606;52.138;5.424;2023-06-22T07:47:51;16.60;;;12.00;;
71771;SDS011;59606;52.138;5.424;2023-06-22T07:50:17;18.42;;;11.82;;
71771;SDS011;59606;52.138;5.424;2023-06-22T07:52:44;18.53;;;11.03;;
71771;SDS011;59606;52.138;5.424;2023-06-22T07:55:12;16.60;;;10.75;;
71771;SDS011;59606;52.138;5.424;2023-06-22T07:57:38;21.50;;;11.27;;
71771;SDS011;59606;52.138;5.424;2023-06-22T08:00:05;16.02;;;10.05;;
71771;SDS011;59606;52.138;5.424;2023-06-22T08:02:44;16.73;;;10.27;;
71771;SDS011;59606;52.138;5.424;2023-06-22T08:05:15;15.77;;;9.83;;
71771;SDS011;59606;52.138;5.424;2023-06-22T08:07:44;14.05;;;9.20;;
71771;SDS011;59606;52.138;5.424;2023-06-22T08:10:13;14.48;;;10.32;;
71771;SDS011;59606;52.138;5.424;2023-06-22T08:12:40;15.25;;;10.43;;
71771;SDS011;59606;52.138;5.424;2023-06-22T08:15:07;15.70;;;10.10;;
71771;SDS011;59606;52.138;5.424;2023-06-22T08:17:38;18.97;;;10.70;;
71771;SDS011;59606;52.138;5.424;2023-06-22T08:20:09;15.23;;;10.35;;
71771;SDS011;59606;52.138;5.424;2023-06-22T08:22:38;13.30;;;9.75;;
71771;SDS011;59606;52.138;5.424;2023-06-22T08:25:05;15.48;;;9.30;;
71771;SDS011;59606;52.138;5.424;2023-06-22T08:27:32;14.60;;;8.95;;
71771;SDS011;59606;52.138;5.424;2023-06-22T08:29:59;14.93;;;9.07;;
71771;SDS011;59606;52.138;5.424;2023-06-22T08:32:29;15.18;;;8.90;;
71771;SDS011;59606;52.138;5.424;2023-06-22T08:34:56;12.73;;;7.93;;
71771;SDS011;59606;52.138;5.424;2023-06-22T08:37:24;14.65;;;9.98;;
71771;SDS011;59606;52.138;5.424;2023-06-22T08:39:58;20.40;;;15.02;;
71771;SDS011;59606;52.138;5.424;2023-06-22T08:42:25;11.57;;;8.27;;
71771;SDS011;59606;52.138;5.424;2023-06-22T08:44:55;13.25;;;7.72;;
71771;SDS011;59606;52.138;5.424;2023-06-22T08:47:21;12.88;;;6.93;;
71771;SDS011;59606;52.138;5.424;2023-06-22T08:49:49;12.73;;;7.50;;
71771;SDS011;59606;52.138;5.424;2023-06-22T08:52:17;10.10;;;6.55;;
71771;SDS011;59606;52.138;5.424;2023-06-22T08:54:44;9.50;;;7.13;;
71771;SDS011;59606;52.138;5.424;2023-06-22T08:57:10;10.02;;;5.55;;
71771;SDS011;59606;52.138;5.424;2023-06-22T08:59:37;10.13;;;6.22;;
71771;SDS011;59606;52.138;5.424;2023-06-22T09:02:04;9.55;;;5.82;;
71771;SDS011;59606;52.138;5.424;2023-06-22T09:04:30;9.32;;;5.70;;
71771;SDS011;59606;52.138;5.424;2023-06-22T09:07:02;9.23;;;5.80;;
71771;SDS011;59606;52.138;5.424;2023-06-22T09:09:30;9.20;;;5.43;;
71771;SDS011;59606;52.138;5.424;2023-06-22T09:11:56;8.50;;;4.90;;
71771;SDS011;59606;52.138;5.424;2023-06-22T09:14:23;14.18;;;5.07;;
71771;SDS011;59606;52.138;5.424;2023-06-22T09:16:49;7.78;;;5.00;;
71771;SDS011;59606;52.138;5.424;2023-06-22T09:19:16;7.43;;;4.67;;
71771;SDS011;59606;52.138;5.424;2023-06-22T09:21:43;9.25;;;5.68;;
71771;SDS011;59606;52.138;5.424;2023-06-22T09:24:09;8.38;;;5.45;;
71771;SDS011;59606;52.138;5.424;2023-06-22T09:26:36;9.32;;;5.40;;
71771;SDS011;59606;52.138;5.424;2023-06-22T09:29:04;9.07;;;5.10;;
71771;SDS011;59606;52.138;5.424;2023-06-22T09:31:32;8.05;;;4.82;;
71771;SDS011;59606;52.138;5.424;2023-06-22T09:33:58;7.28;;;4.40;;
71771;SDS011;59606;52.138;5.424;2023-06-22T09:36:25;9.15;;;4.13;;
71771;SDS011;59606;52.138;5.424;2023-06-22T09:38:53;7.55;;;3.50;;
71771;SDS011;59606;52.138;5.424;2023-06-22T09:41:22;7.10;;;4.03;;
71771;SDS011;59606;52.138;5.424;2023-06-22T09:43:49;6.93;;;3.80;;
71771;SDS011;59606;52.138;5.424;2023-06-22T09:46:16;7.72;;;3.65;;
71771;SDS011;59606;52.138;5.424;2023-06-22T09:48:43;10.27;;;4.95;;
71771;SDS011;59606;52.138;5.424;2023-06-22T09:51:11;8.15;;;4.72;;
71771;SDS011;59606;52.138;5.424;2023-06-22T09:53:39;7.50;;;4.90;;
71771;SDS011;59606;52.138;5.424;2023-06-22T09:56:05;8.98;;;4.95;;
71771;SDS011;59606;52.138;5.424;2023-06-22T09:58:32;9.23;;;4.70;;
71771;SDS011;59606;52.138;5.424;2023-06-22T10:00:59;7.28;;;4.65;;
71771;SDS011;59606;52.138;5.424;2023-06-22T10:03:25;9.07;;;4.60;;
71771;SDS011;59606;52.138;5.424;2023-06-22T10:05:52;8.13;;;4.30;;
71771;SDS011;59606;52.138;5.424;2023-06-22T10:08:19;6.93;;;4.13;;
71771;SDS011;59606;52.138;5.424;2023-06-22T10:10:45;8.35;;;4.35;;
71771;SDS011;59606;52.138;5.424;2023-06-22T10:13:12;5.85;;;4.00;;
71771;SDS011;59606;52.138;5.424;2023-06-22T10:15:38;6.78;;;3.83;;
71771;SDS011;59606;52.138;5.424;2023-06-22T10:18:05;5.80;;;3.40;;
71771;SDS011;59606;52.138;5.424;2023-06-22T10:20:31;6.40;;;3.47;;
71771;SDS011;59606;52.138;5.424;2023-06-22T10:22:58;5.82;;;3.10;;
71771;SDS011;59606;52.138;5.424;2023-06-22T10:25:26;6.28;;;3.72;;
71771;SDS011;59606;52.138;5.424;2023-06-22T10:28:01;6.05;;;3.75;;
71771;SDS011;59606;52.138;5.424;2023-06-22T10:30:27;6.35;;;3.35;;
71771;SDS011;59606;52.138;5.424;2023-06-22T10:32:55;8.30;;;3.60;;
71771;SDS011;59606;52.138;5.424;2023-06-22T10:35:22;5.25;;;3.15;;
71771;SDS011;59606;52.138;5.424;2023-06-22T10:37:48;11.50;;;3.78;;
71771;SDS011;59606;52.138;5.424;2023-06-22T10:40:16;9.88;;;4.15;;
71771;SDS011;59606;52.138;5.424;2023-06-22T10:42:44;6.88;;;4.00;;
71771;SDS011;59606;52.138;5.424;2023-06-22T10:45:11;10.57;;;5.67;;
71771;SDS011;59606;52.138;5.424;2023-06-22T10:47:37;8.63;;;4.60;;
71771;SDS011;59606;52.138;5.424;2023-06-22T10:50:05;11.35;;;4.88;;
71771;SDS011;59606;52.138;5.424;2023-06-22T10:52:32;7.65;;;4.50;;
71771;SDS011;59606;52.138;5.424;2023-06-22T10:54:59;7.03;;;4.07;;
71771;SDS011;59606;52.138;5.424;2023-06-22T10:57:25;9.07;;;4.83;;
71771;SDS011;59606;52.138;5.424;2023-06-22T10:59:52;8.57;;;4.68;;
71771;SDS011;59606;52.138;5.424;2023-06-22T11:02:18;7.65;;;4.97;;
71771;SDS011;59606;52.138;5.424;2023-06-22T11:04:45;8.20;;;4.85;;
71771;SDS011;59606;52.138;5.424;2023-06-22T11:07:12;8.60;;;4.88;;
71771;SDS011;59606;52.138;5.424;2023-06-22T11:09:39;8.98;;;5.00;;
71771;SDS011;59606;52.138;5.424;2023-06-22T11:12:06;8.77;;;4.60;;
71771;SDS011;59606;52.138;5.424;2023-06-22T11:14:32;7.22;;;4.38;;
71771;SDS011;59606;52.138;5.424;2023-06-22T11:17:02;8.10;;;4.80;;
71771;SDS011;59606;52.138;5.424;2023-06-22T11:19:29;9.20;;;4.05;;
71771;SDS011;59606;52.138;5.424;2023-06-22T11:21:55;11.43;;;3.97;;
71771;SDS011;59606;52.138;5.424;2023-06-22T11:24:21;7.55;;;5.05;;
71771;SDS011;59606;52.138;5.424;2023-06-22T11:26:48;12.90;;;5.65;;
71771;SDS011;59606;52.138;5.424;2023-06-22T11:29:18;9.13;;;5.60;;
71771;SDS011;59606;52.138;5.424;2023-06-22T11:32:02;10.75;;;6.30;;
71771;SDS011;59606;52.138;5.424;2023-06-22T11:34:29;15.02;;;6.97;;
71771;SDS011;59606;52.138;5.424;2023-06-22T11:36:56;12.90;;;6.93;;
71771;SDS011;59606;52.138;5.424;2023-06-22T11:39:22;12.98;;;7.40;;
71771;SDS011;59606;52.138;5.424;2023-06-22T11:42:06;14.52;;;7.60;;
71771;SDS011;59606;52.138;5.424;2023-06-22T11:44:33;19.88;;;7.63;;
71771;SDS011;59606;52.138;5.424;2023-06-22T11:46:59;18.33;;;9.23;;
71771;SDS011;59606;52.138;5.424;2023-06-22T11:49:27;19.70;;;8.27;;
71771;SDS011;59606;52.138;5.424;2023-06-22T11:51:53;14.80;;;8.75;;
71771;SDS011;59606;52.138;5.424;2023-06-22T11:54:20;12.98;;;6.95;;
71771;SDS011;59606;52.138;5.424;2023-06-22T11:56:46;12.30;;;7.80;;
71771;SDS011;59606;52.138;5.424;2023-06-22T11:59:13;13.37;;;8.87;;
71771;SDS011;59606;52.138;5.424;2023-06-22T12:01:39;16.13;;;8.38;;
71771;SDS011;59606;52.138;5.424;2023-06-22T12:04:06;16.10;;;8.80;;
71771;SDS011;59606;52.138;5.424;2023-06-22T12:06:33;13.30;;;8.35;;
71771;SDS011;59606;52.138;5.424;2023-06-22T12:09:04;13.27;;;7.65;;
71771;SDS011;59606;52.138;5.424;2023-06-22T12:11:31;11.73;;;7.85;;
71771;SDS011;59606;52.138;5.424;2023-06-22T12:13:57;13.75;;;8.63;;
71771;SDS011;59606;52.138;5.424;2023-06-22T12:16:28;12.00;;;7.50;;
71771;SDS011;59606;52.138;5.424;2023-06-22T12:18:55;14.13;;;8.45;;
71771;SDS011;59606;52.138;5.424;2023-06-22T12:21:21;12.65;;;8.23;;
71771;SDS011;59606;52.138;5.424;2023-06-22T12:23:48;14.52;;;8.02;;
71771;SDS011;59606;52.138;5.424;2023-06-22T12:26:14;13.50;;;7.95;;
71771;SDS011;59606;52.138;5.424;2023-06-22T12:28:42;12.98;;;8.07;;
71771;SDS011;59606;52.138;5.424;2023-06-22T12:31:09;12.88;;;9.15;;
71771;SDS011;59606;52.138;5.424;2023-06-22T12:33:35;14.15;;;8.63;;
71771;SDS011;59606;52.138;5.424;2023-06-22T12:36:02;15.65;;;9.07;;
71771;SDS011;59606;52.138;5.424;2023-06-22T12:38:29;13.63;;;8.82;;
71771;SDS011;59606;52.138;5.424;2023-06-22T12:40:56;17.77;;;9.05;;
71771;SDS011;59606;52.138;5.424;2023-06-22T12:43:22;12.75;;;9.27;;
71771;SDS011;59606;52.138;5.424;2023-06-22T12:45:49;15.02;;;9.10;;
71771;SDS011;59606;52.138;5.424;2023-06-22T12:48:15;13.83;;;7.67;;
71771;SDS011;59606;52.138;5.424;2023-06-22T12:50:43;10.88;;;6.90;;
71771;SDS011;59606;52.138;5.424;2023-06-22T12:53:09;9.65;;;6.47;;
71771;SDS011;59606;52.138;5.424;2023-06-22T12:55:36;9.30;;;6.43;;
71771;SDS011;59606;52.138;5.424;2023-06-22T12:58:02;10.18;;;6.25;;
71771;SDS011;59606;52.138;5.424;2023-06-22T13:00:29;10.50;;;6.00;;
71771;SDS011;59606;52.138;5.424;2023-06-22T13:02:55;8.90;;;6.30;;
71771;SDS011;59606;52.138;5.424;2023-06-22T13:05:22;11.20;;;6.72;;
71771;SDS011;59606;52.138;5.424;2023-06-22T13:07:49;12.20;;;6.75;;
71771;SDS011;59606;52.138;5.424;2023-06-22T13:10:15;10.95;;;6.07;;
71771;SDS011;59606;52.138;5.424;2023-06-22T13:12:42;10.60;;;6.77;;
71771;SDS011;59606;52.138;5.424;2023-06-22T13:15:08;10.10;;;5.88;;
71771;SDS011;59606;52.138;5.424;2023-06-22T13:17:35;12.25;;;7.22;;
71771;SDS011;59606;52.138;5.424;2023-06-22T13:20:01;12.45;;;7.38;;
71771;SDS011;59606;52.138;5.424;2023-06-22T13:22:31;10.52;;;7.05;;
71771;SDS011;59606;52.138;5.424;2023-06-22T13:24:59;10.77;;;7.33;;
71771;SDS011;59606;52.138;5.424;2023-06-22T13:27:26;11.07;;;7.75;;
71771;SDS011;59606;52.138;5.424;2023-06-22T13:29:53;12.30;;;8.77;;
71771;SDS011;59606;52.138;5.424;2023-06-22T13:32:19;13.82;;;8.45;;
71771;SDS011;59606;52.138;5.424;2023-06-22T13:34:46;11.50;;;7.82;;
71771;SDS011;59606;52.138;5.424;2023-06-22T13:37:12;11.82;;;7.30;;
71771;SDS011;59606;52.138;5.424;2023-06-22T13:39:39;11.10;;;7.72;;
71771;SDS011;59606;52.138;5.424;2023-06-22T13:42:06;15.65;;;8.80;;
71771;SDS011;59606;52.138;5.424;2023-06-22T13:44:32;12.88;;;8.10;;
71771;SDS011;59606;52.138;5.424;2023-06-22T13:46:59;13.63;;;8.73;;
71771;SDS011;59606;52.138;5.424;2023-06-22T13:49:28;16.10;;;8.90;;
71771;SDS011;59606;52.138;5.424;2023-06-22T13:51:55;20.98;;;9.00;;
71771;SDS011;59606;52.138;5.424;2023-06-22T13:54:21;15.45;;;9.20;;
71771;SDS011;59606;52.138;5.424;2023-06-22T13:56:51;12.88;;;8.65;;
71771;SDS011;59606;52.138;5.424;2023-06-22T13:59:18;13.40;;;9.60;;
71771;SDS011;59606;52.138;5.424;2023-06-22T14:01:46;11.77;;;8.43;;
71771;SDS011;59606;52.138;5.424;2023-06-22T14:04:12;15.93;;;9.52;;
71771;SDS011;59606;52.138;5.424;2023-06-22T14:06:39;14.05;;;9.10;;
71771;SDS011;59606;52.138;5.424;2023-06-22T14:09:05;14.35;;;9.10;;
71771;SDS011;59606;52.138;5.424;2023-06-22T14:11:33;13.18;;;8.65;;
71771;SDS011;59606;52.138;5.424;2023-06-22T14:13:59;13.80;;;9.30;;
71771;SDS011;59606;52.138;5.424;2023-06-22T14:16:26;13.38;;;8.77;;
71771;SDS011;59606;52.138;5.424;2023-06-22T14:18:52;17.20;;;9.23;;
71771;SDS011;59606;52.138;5.424;2023-06-22T14:21:22;15.32;;;9.70;;
71771;SDS011;59606;52.138;5.424;2023-06-22T14:23:49;13.07;;;9.00;;
71771;SDS011;59606;52.138;5.424;2023-06-22T14:26:16;14.90;;;9.90;;
71771;SDS011;59606;52.138;5.424;2023-06-22T14:28:46;15.60;;;10.55;;
71771;SDS011;59606;52.138;5.424;2023-06-22T14:31:15;14.50;;;9.63;;
71771;SDS011;59606;52.138;5.424;2023-06-22T14:33:44;13.88;;;10.20;;
71771;SDS011;59606;52.138;5.424;2023-06-22T14:36:13;13.93;;;9.23;;
71771;SDS011;59606;52.138;5.424;2023-06-22T14:38:45;14.97;;;10.10;;
71771;SDS011;59606;52.138;5.424;2023-06-22T14:41:13;15.45;;;10.30;;
71771;SDS011;59606;52.138;5.424;2023-06-22T14:43:49;17.00;;;10.57;;
71771;SDS011;59606;52.138;5.424;2023-06-22T14:46:17;15.52;;;10.57;;
71771;SDS011;59606;52.138;5.424;2023-06-22T14:48:44;14.60;;;10.18;;